createdAt,value
2018-07-22T00:01:07.532Z,101387.06
2018-07-22T00:03:42.025Z,101395.36
2018-07-22T00:06:16.622Z,101391.73
2018-07-22T00:08:46.268Z,101391.42
2018-07-22T00:11:15.192Z,101389.69
2018-07-22T00:13:44.147Z,101391.14
2018-07-22T00:16:13.064Z,101390.61
2018-07-22T00:18:41.983Z,101391.42
2018-07-22T00:21:10.936Z,101393.55
2018-07-22T00:23:39.860Z,101396.91
2018-07-22T00:26:08.880Z,101395.51
2018-07-22T00:28:38.559Z,101397.75
2018-07-22T00:31:07.844Z,101397.47
2018-07-22T00:33:37.494Z,101400.75
2018-07-22T00:36:06.459Z,101399.59
2018-07-22T00:38:35.426Z,101404.60
2018-07-22T00:42:07.766Z,101400.77
2018-07-22T00:44:36.774Z,101399.45
2018-07-22T00:47:05.951Z,101395.58
2018-07-22T00:49:34.898Z,101397.08
2018-07-22T00:52:03.818Z,101399.02
2018-07-22T00:54:33.531Z,101399.79
2018-07-22T00:57:02.535Z,101396.83
2018-07-22T00:59:31.504Z,101398.42
2018-07-22T01:02:00.422Z,101394.92
2018-07-22T01:04:29.338Z,101387.69
2018-07-22T01:06:58.328Z,101387.70
2018-07-22T01:09:27.275Z,101391.88
2018-07-22T01:11:56.223Z,101395.08
2018-07-22T01:14:25.194Z,101392.12
2018-07-22T01:16:54.142Z,101385.90
2018-07-22T01:19:23.028Z,101386.37
2018-07-22T01:21:51.960Z,101390.25
2018-07-22T01:24:21.481Z,101400.66
2018-07-22T01:26:50.416Z,101406.36
2018-07-22T01:29:19.378Z,101410.84
2018-07-22T01:31:48.280Z,101407.11
2018-07-22T01:34:17.222Z,101399.94
2018-07-22T01:36:46.110Z,101406.70
2018-07-22T01:39:15.045Z,101411.55
2018-07-22T01:41:44.649Z,101406.70
2018-07-22T01:44:13.532Z,101405.73
2018-07-22T01:46:42.500Z,101408.45
2018-07-22T01:49:11.382Z,101408.09
2018-07-22T01:51:40.298Z,101405.50
2018-07-22T01:54:09.245Z,101412.45
2018-07-22T01:56:38.175Z,101405.52
2018-07-22T01:59:07.290Z,101409.40
2018-07-22T02:01:37.012Z,101402.94
2018-07-22T02:04:06.002Z,101403.68
2018-07-22T02:06:34.914Z,101403.02
2018-07-22T02:09:04.254Z,101407.72
2018-07-22T02:11:33.140Z,101403.11
2018-07-22T02:14:02.308Z,101414.38
2018-07-22T02:16:31.225Z,101417.98
2018-07-22T02:19:00.138Z,101423.09
2018-07-22T02:21:34.625Z,101417.24
2018-07-22T02:24:03.534Z,101414.64
2018-07-22T02:26:32.464Z,101415.17
2018-07-22T02:29:02.377Z,101411.34
2018-07-22T02:31:31.702Z,101420.63
2018-07-22T02:34:00.715Z,101406.92
2018-07-22T02:36:29.617Z,101415.31
2018-07-22T02:38:58.560Z,101415.20
2018-07-22T02:41:27.462Z,101420.28
2018-07-22T02:43:56.617Z,101418.80
2018-07-22T02:46:25.592Z,101410.02
2018-07-22T02:48:55.084Z,101411.73
2018-07-22T02:51:24.067Z,101414.84
2018-07-22T02:53:53.418Z,101421.26
2018-07-22T02:56:22.364Z,101420.28
2018-07-22T02:58:51.334Z,101420.88
2018-07-22T03:01:21.268Z,101416.67
2018-07-22T03:03:50.213Z,101420.39
2018-07-22T03:06:19.157Z,101422.48
2018-07-22T03:08:48.147Z,101420.75
2018-07-22T03:11:17.094Z,101416.39
2018-07-22T03:13:45.997Z,101421.09
2018-07-22T03:16:14.908Z,101416.77
2018-07-22T03:18:43.828Z,101417.63
2018-07-22T03:21:13.688Z,101418.22
2018-07-22T03:23:42.629Z,101412.79
2018-07-22T03:26:11.621Z,101418.12
2018-07-22T03:28:40.614Z,101418.48
2018-07-22T03:31:09.583Z,101422.83
2018-07-22T03:33:38.514Z,101417.48
2018-07-22T03:36:07.459Z,101423.05
2018-07-22T03:38:36.452Z,101427.05
2018-07-22T03:41:05.395Z,101430.64
2018-07-22T03:43:34.337Z,101428.02
2018-07-22T03:46:03.285Z,101424.09
2018-07-22T03:48:32.186Z,101421.98
2018-07-22T03:51:01.075Z,101421.08
2018-07-22T03:53:30.022Z,101424.91
2018-07-22T03:55:58.981Z,101428.17
2018-07-22T03:58:27.944Z,101430.13
2018-07-22T04:00:57.545Z,101421.48
2018-07-22T04:03:26.479Z,101422.33
2018-07-22T04:05:55.468Z,101421.45
2018-07-22T04:08:24.367Z,101418.50
2018-07-22T04:10:53.295Z,101424.80
2018-07-22T04:13:22.223Z,101431.08
2018-07-22T04:15:51.157Z,101428.52
2018-07-22T04:18:20.095Z,101431.34
2018-07-22T04:20:49.043Z,101432.10
2018-07-22T04:23:17.961Z,101427.88
2018-07-22T04:25:46.841Z,101435.09
2018-07-22T04:28:15.732Z,101434.31
2018-07-22T04:30:44.765Z,101432.97
2018-07-22T04:33:13.679Z,101430.23
2018-07-22T04:35:42.703Z,101437.41
2018-07-22T04:38:11.605Z,101431.62
2018-07-22T04:40:40.498Z,101427.06
2018-07-22T04:43:09.475Z,101420.09
2018-07-22T04:45:38.394Z,101423.94
2018-07-22T04:48:07.322Z,101422.31
2018-07-22T04:50:36.267Z,101427.39
2018-07-22T04:53:05.293Z,101427.63
2018-07-22T04:55:34.175Z,101428.75
2018-07-22T04:58:03.201Z,101425.79
2018-07-22T05:00:32.161Z,101419.82
2018-07-22T05:03:01.105Z,101428.72
2018-07-22T05:05:30.063Z,101431.20
2018-07-22T05:07:59.072Z,101438.13
2018-07-22T05:10:28.042Z,101427.11
2018-07-22T05:12:57.007Z,101431.67
2018-07-22T05:15:25.979Z,101432.41
2018-07-22T05:17:54.970Z,101440.13
2018-07-22T05:20:23.909Z,101444.56
2018-07-22T05:22:52.891Z,101439.61
2018-07-22T05:25:21.785Z,101441.35
2018-07-22T05:27:50.682Z,101441.69
2018-07-22T05:30:19.667Z,101439.08
2018-07-22T05:32:48.567Z,101442.80
2018-07-22T05:35:17.539Z,101445.91
2018-07-22T05:37:46.555Z,101441.77
2018-07-22T05:40:16.329Z,101446.91
2018-07-22T05:42:45.263Z,101441.72
2018-07-22T05:45:14.179Z,101442.68
2018-07-22T05:47:43.242Z,101444.04
2018-07-22T05:50:12.179Z,101449.87
2018-07-22T05:52:41.117Z,101448.66
2018-07-22T05:55:10.024Z,101455.06
2018-07-22T05:57:39.019Z,101452.72
2018-07-22T06:00:08.391Z,101456.30
2018-07-22T06:02:37.397Z,101452.69
2018-07-22T06:05:06.679Z,101450.12
2018-07-22T06:07:35.579Z,101451.33
2018-07-22T06:10:05.101Z,101451.91
2018-07-22T06:12:34.006Z,101452.98
2018-07-22T06:15:02.948Z,101458.88
2018-07-22T06:17:31.883Z,101453.27
2018-07-22T06:20:00.826Z,101465.97
2018-07-22T06:22:29.729Z,101466.20
2018-07-22T06:24:59.573Z,101460.40
2018-07-22T06:27:28.468Z,101459.59
2018-07-22T06:29:57.425Z,101452.73
2018-07-22T06:32:26.419Z,101460.30
2018-07-22T06:34:55.408Z,101457.40
2018-07-22T06:37:24.291Z,101463.45
2018-07-22T06:39:53.388Z,101463.67
2018-07-22T06:42:22.315Z,101467.33
2018-07-22T06:44:51.400Z,101458.97
2018-07-22T06:47:20.332Z,101461.70
2018-07-22T06:49:49.289Z,101465.23
2018-07-22T06:52:18.203Z,101465.73
2018-07-22T06:54:47.150Z,101463.53
2018-07-22T06:57:16.983Z,101473.61
2018-07-22T06:59:45.837Z,101470.88
2018-07-22T07:02:14.796Z,101469.00
2018-07-22T07:04:43.680Z,101464.25
2018-07-22T07:07:12.599Z,101477.20
2018-07-22T07:09:41.565Z,101474.11
2018-07-22T07:12:10.537Z,101470.06
2018-07-22T07:14:39.487Z,101468.44
2018-07-22T07:17:08.463Z,101467.02
2018-07-22T07:19:37.411Z,101464.67
2018-07-22T07:22:07.031Z,101469.52
2018-07-22T07:24:35.958Z,101476.02
2018-07-22T07:27:04.943Z,101468.34
2018-07-22T07:29:34.892Z,101473.90
2018-07-22T07:32:03.944Z,101473.23
2018-07-22T07:34:32.857Z,101470.38
2018-07-22T07:37:01.754Z,101465.42
2018-07-22T07:39:30.702Z,101462.53
2018-07-22T07:41:59.660Z,101467.57
2018-07-22T07:44:28.532Z,101469.27
2018-07-22T07:46:57.493Z,101467.02
2018-07-22T07:49:26.378Z,101467.57
2018-07-22T07:51:55.352Z,101470.02
2018-07-22T07:54:24.335Z,101468.02
2018-07-22T07:56:53.220Z,101470.38
2018-07-22T07:59:22.205Z,101473.64
2018-07-22T08:01:51.101Z,101477.70
2018-07-22T08:04:20.032Z,101478.89
2018-07-22T08:06:49.005Z,101474.44
2018-07-22T08:09:18.059Z,101463.78
2018-07-22T08:11:49.075Z,101461.92
2018-07-22T08:14:18.611Z,101467.89
2018-07-22T08:16:47.536Z,101468.48
2018-07-22T08:19:16.507Z,101472.77
2018-07-22T08:21:45.454Z,101476.67
2018-07-22T08:24:14.322Z,101473.38
2018-07-22T08:26:43.311Z,101480.41
2018-07-22T08:29:22.931Z,101483.23
2018-07-22T08:31:51.887Z,101489.55
2018-07-22T08:34:21.001Z,101488.26
2018-07-22T08:36:50.195Z,101491.37
2018-07-22T08:39:21.516Z,101499.19
2018-07-22T08:41:51.806Z,101489.36
2018-07-22T08:44:21.350Z,101497.67
2018-07-22T08:46:50.280Z,101500.52
2018-07-22T08:49:19.257Z,101498.38
2018-07-22T08:51:48.182Z,101498.81
2018-07-22T08:54:17.216Z,101499.81
2018-07-22T08:56:46.376Z,101497.30
2018-07-22T08:59:15.397Z,101499.03
2018-07-22T09:01:44.288Z,101498.00
2018-07-22T09:04:13.238Z,101495.38
2018-07-22T09:06:42.241Z,101494.33
2018-07-22T09:22:11.180Z,101501.41
2018-07-22T09:24:40.115Z,101501.52
2018-07-22T09:27:09.373Z,101506.25
2018-07-22T09:29:38.192Z,101505.97
2018-07-22T09:32:07.386Z,101511.00
2018-07-22T09:34:37.990Z,101515.25
2018-07-22T09:37:06.861Z,101506.59
2018-07-22T09:39:35.765Z,101506.66
2018-07-22T09:42:04.736Z,101498.04
2018-07-22T09:44:33.650Z,101504.34
2018-07-22T09:47:02.622Z,101501.87
2018-07-22T09:49:32.286Z,101506.52
2018-07-22T09:52:01.244Z,101507.03
2018-07-22T09:54:31.528Z,101500.77
2018-07-22T09:57:00.432Z,101506.33
2018-07-22T09:59:29.315Z,101493.65
2018-07-22T10:01:58.292Z,101488.45
2018-07-22T10:04:27.267Z,101494.50
2018-07-22T10:06:56.178Z,101495.43
2018-07-22T10:09:25.086Z,101494.01
2018-07-22T10:11:55.556Z,101492.92
2018-07-22T10:14:24.521Z,101493.64
2018-07-22T10:16:53.358Z,101493.56
2018-07-22T10:19:22.284Z,101500.66
2018-07-22T10:21:51.278Z,101498.93
2018-07-22T10:24:20.192Z,101502.50
2018-07-22T10:26:49.134Z,101493.00
2018-07-22T10:29:18.050Z,101492.97
2018-07-22T10:31:47.326Z,101499.11
2018-07-22T10:34:16.348Z,101492.97
2018-07-22T10:36:45.227Z,101489.84
2018-07-22T10:39:14.136Z,101493.80
2018-07-22T10:41:43.104Z,101490.18
2018-07-22T10:44:12.038Z,101484.99
2018-07-22T10:46:41.024Z,101488.98
2018-07-22T10:49:09.984Z,101486.52
2018-07-22T10:51:38.892Z,101483.80
2018-07-22T10:54:07.850Z,101485.84
2018-07-22T10:56:36.832Z,101473.27
2018-07-22T10:59:05.795Z,101481.42
2018-07-22T11:01:34.708Z,101477.95
2018-07-22T11:04:03.705Z,101480.91
2018-07-22T11:06:32.668Z,101484.67
2018-07-22T11:09:01.615Z,101481.84
2018-07-22T11:11:30.813Z,101482.13
2018-07-22T11:13:59.703Z,101476.66
2018-07-22T11:16:29.704Z,101478.39
2018-07-22T11:18:58.677Z,101479.78
2018-07-22T11:21:28.100Z,101475.50
2018-07-22T11:23:57.116Z,101472.14
2018-07-22T11:26:26.041Z,101480.36
2018-07-22T11:28:55.985Z,101480.42
2018-07-22T11:31:24.792Z,101474.55
2018-07-22T11:33:53.760Z,101480.69
2018-07-22T11:36:22.672Z,101479.55
2018-07-22T11:38:51.604Z,101476.83
2018-07-22T11:41:20.524Z,101485.27
2018-07-22T11:43:49.779Z,101479.78
2018-07-22T11:46:18.675Z,101473.30
2018-07-22T11:48:47.592Z,101472.91
2018-07-22T11:51:16.485Z,101475.25
2018-07-22T11:53:46.393Z,101473.16
2018-07-22T11:56:15.366Z,101480.19
2018-07-22T11:58:44.382Z,101473.87
2018-07-22T12:01:13.376Z,101476.64
2018-07-22T12:03:42.257Z,101479.92
2018-07-22T12:06:11.261Z,101468.53
2018-07-22T12:08:40.213Z,101484.45
2018-07-22T12:11:09.154Z,101486.77
2018-07-22T12:13:38.050Z,101479.91
2018-07-22T12:16:07.002Z,101487.45
2018-07-22T12:18:35.888Z,101491.16
2018-07-22T12:21:04.804Z,101486.78
2018-07-22T12:23:33.697Z,101487.48
2018-07-22T12:26:02.690Z,101483.30
2018-07-22T12:28:31.630Z,101489.41
2018-07-22T12:31:00.535Z,101485.39
2018-07-22T12:33:29.456Z,101486.92
2018-07-22T12:35:58.380Z,101491.11
2018-07-22T12:38:27.316Z,101496.50
2018-07-22T12:40:56.273Z,101492.08
2018-07-22T12:43:25.196Z,101495.66
2018-07-22T12:45:54.168Z,101496.38
2018-07-22T12:48:23.563Z,101498.20
2018-07-22T12:50:52.905Z,101507.05
2018-07-22T12:53:21.798Z,101501.02
2018-07-22T12:55:50.760Z,101492.42
2018-07-22T12:58:19.608Z,101504.30
2018-07-22T13:00:48.631Z,101497.17
2018-07-22T13:03:17.556Z,101507.74
2018-07-22T13:05:46.522Z,101506.50
2018-07-22T13:08:15.412Z,101513.26
2018-07-22T13:10:44.386Z,101513.75
2018-07-22T13:13:13.381Z,101515.30
2018-07-22T13:15:42.256Z,101508.56
2018-07-22T13:18:12.018Z,101515.08
2018-07-22T13:20:40.997Z,101514.52
2018-07-22T13:23:10.812Z,101501.64
2018-07-22T13:25:39.736Z,101508.27
2018-07-22T13:28:08.712Z,101509.36
2018-07-22T13:30:38.409Z,101509.97
2018-07-22T13:33:07.334Z,101511.19
2018-07-22T13:35:36.220Z,101511.39
2018-07-22T13:38:05.166Z,101519.95
2018-07-22T13:40:34.057Z,101516.28
2018-07-22T13:43:03.071Z,101509.00
2018-07-22T13:45:32.307Z,101520.95
2018-07-22T13:48:01.107Z,101518.70
2018-07-22T13:50:29.987Z,101524.55
2018-07-22T13:52:58.978Z,101524.73
2018-07-22T13:55:27.870Z,101522.40
2018-07-22T13:57:57.630Z,101523.81
2018-07-22T14:00:28.261Z,101524.81
2018-07-22T14:02:58.501Z,101527.34
2018-07-22T14:05:28.218Z,101519.33
2018-07-22T14:07:57.345Z,101526.84
2018-07-22T14:10:26.388Z,101525.84
2018-07-22T14:12:58.709Z,101522.02
2018-07-22T14:15:29.108Z,101527.34
2018-07-22T14:17:58.028Z,101528.73
2018-07-22T14:20:28.031Z,101527.70
2018-07-22T14:22:56.991Z,101531.81
2018-07-22T14:25:25.910Z,101535.44
2018-07-22T14:27:54.947Z,101523.64
2018-07-22T14:30:23.885Z,101516.17
2018-07-22T14:32:52.792Z,101533.94
2018-07-22T14:35:28.102Z,101527.45
2018-07-22T14:37:57.053Z,101535.95
2018-07-22T14:40:26.016Z,101522.97
2018-07-22T14:42:54.946Z,101527.97
2018-07-22T14:45:23.870Z,101529.32
2018-07-22T14:47:52.754Z,101522.77
2018-07-22T14:50:21.677Z,101528.95
2018-07-22T14:52:50.612Z,101519.88
2018-07-22T14:55:19.557Z,101521.09
2018-07-22T14:57:48.564Z,101517.12
2018-07-22T15:00:17.514Z,101526.20
2018-07-22T15:02:47.543Z,101519.33
2018-07-22T15:05:16.426Z,101529.63
2018-07-22T15:07:45.310Z,101518.77
2018-07-22T15:10:14.225Z,101525.29
2018-07-22T15:12:43.696Z,101521.44
2018-07-22T15:15:12.747Z,101525.44
2018-07-22T15:17:41.696Z,101517.88
2018-07-22T15:20:10.584Z,101524.37
2018-07-22T15:22:39.539Z,101528.22
2018-07-22T15:25:08.479Z,101533.00
2018-07-22T15:27:37.752Z,101526.52
2018-07-22T15:30:06.803Z,101525.66
2018-07-22T15:32:35.793Z,101525.70
2018-07-22T15:35:04.771Z,101527.95
2018-07-22T15:37:34.361Z,101534.02
2018-07-22T15:40:03.418Z,101530.23
2018-07-22T15:42:32.306Z,101534.91
2018-07-22T15:45:01.301Z,101525.86
2018-07-22T15:47:30.235Z,101526.92
2018-07-22T15:49:59.142Z,101531.15
2018-07-22T15:52:28.109Z,101519.62
2018-07-22T15:54:59.198Z,101520.40
2018-07-22T15:57:28.082Z,101519.78
2018-07-22T15:59:57.084Z,101523.69
2018-07-22T16:02:25.962Z,101517.91
2018-07-22T16:04:54.943Z,101518.91
2018-07-22T16:07:23.832Z,101519.06
2018-07-22T16:09:52.728Z,101517.33
2018-07-22T16:12:21.636Z,101527.25
2018-07-22T16:14:50.602Z,101521.06
2018-07-22T16:17:19.528Z,101519.06
2018-07-22T16:19:48.448Z,101521.36
2018-07-22T16:22:17.404Z,101517.18
2018-07-22T16:24:46.325Z,101513.14
2018-07-22T16:27:15.257Z,101514.84
2018-07-22T16:29:44.260Z,101517.12
2018-07-22T16:32:13.173Z,101518.61
2018-07-22T16:34:42.176Z,101522.02
2018-07-22T16:37:11.120Z,101521.25
2018-07-22T16:39:40.016Z,101525.06
2018-07-22T16:42:08.928Z,101520.48
2018-07-22T16:44:37.798Z,101514.18
2018-07-22T16:47:06.743Z,101510.59
2018-07-22T16:49:35.743Z,101508.89
2018-07-22T16:52:04.705Z,101510.55
2018-07-22T16:54:34.893Z,101511.03
2018-07-22T16:57:03.875Z,101510.59
2018-07-22T16:59:32.795Z,101515.59
2018-07-22T17:02:01.701Z,101510.80
2018-07-22T17:04:30.733Z,101508.73
2018-07-22T17:06:59.844Z,101510.98
2018-07-22T17:09:28.748Z,101515.22
2018-07-22T17:12:00.024Z,101516.84
2018-07-22T17:14:28.927Z,101510.18
2018-07-22T17:16:57.853Z,101519.81
2018-07-22T17:19:26.771Z,101522.31
2018-07-22T17:21:55.789Z,101519.28
2018-07-22T17:24:24.973Z,101518.25
2018-07-22T17:26:54.131Z,101521.20
2018-07-22T17:29:23.029Z,101523.31
2018-07-22T17:31:51.981Z,101520.03
2018-07-22T17:34:20.907Z,101512.89
2018-07-22T17:36:49.879Z,101515.63
2018-07-22T17:39:18.926Z,101520.14
2018-07-22T17:41:47.856Z,101508.88
2018-07-22T17:44:16.817Z,101522.46
2018-07-22T17:46:45.736Z,101522.89
2018-07-22T17:49:14.779Z,101512.19
2018-07-22T17:51:44.315Z,101516.71
2018-07-22T17:54:13.303Z,101516.86
2018-07-22T17:56:42.182Z,101516.77
2018-07-22T17:59:11.138Z,101523.17
2018-07-22T18:01:40.060Z,101518.88
2018-07-22T18:04:09.050Z,101520.72
2018-07-22T18:06:38.027Z,101520.67
2018-07-22T18:09:08.612Z,101515.20
2018-07-22T18:11:37.787Z,101526.52
2018-07-22T18:14:06.820Z,101522.28
2018-07-22T18:16:36.135Z,101520.48
2018-07-22T18:19:05.148Z,101525.20
2018-07-22T18:21:34.733Z,101528.17
2018-07-22T18:24:04.199Z,101523.54
2018-07-22T18:26:33.137Z,101534.01
2018-07-22T18:29:02.097Z,101530.30
2018-07-22T18:31:31.038Z,101534.97
2018-07-22T18:34:00.065Z,101534.06
2018-07-22T18:36:29.015Z,101533.17
2018-07-22T18:38:58.198Z,101529.21
2018-07-22T18:41:27.178Z,101542.41
2018-07-22T18:43:56.096Z,101540.19
2018-07-22T18:46:25.286Z,101535.77
2018-07-22T18:48:54.660Z,101547.61
2018-07-22T18:51:23.669Z,101546.14
2018-07-22T18:53:52.865Z,101553.69
2018-07-22T18:56:22.982Z,101549.48
2018-07-22T18:58:52.267Z,101552.44
2018-07-22T19:01:21.532Z,101558.83
2018-07-22T19:03:52.279Z,101551.87
2018-07-22T19:06:21.701Z,101563.31
2018-07-22T19:08:50.944Z,101565.45
2018-07-22T19:11:20.168Z,101563.73
2018-07-22T19:13:49.445Z,101561.16
2018-07-22T19:16:25.254Z,101568.42
2018-07-22T19:18:55.628Z,101566.17
2018-07-22T19:21:25.000Z,101569.56
2018-07-22T19:23:54.203Z,101569.70
2018-07-22T19:26:23.468Z,101572.78
2018-07-22T19:28:52.691Z,101578.95
2018-07-22T19:31:22.018Z,101578.95
2018-07-22T19:33:51.217Z,101581.38
2018-07-22T19:36:20.520Z,101578.88
2018-07-22T19:38:49.971Z,101575.44
2018-07-22T19:41:19.182Z,101582.78
2018-07-22T19:43:49.520Z,101581.89
2018-07-22T19:46:18.965Z,101575.06
2018-07-22T19:48:48.466Z,101584.09
2018-07-22T19:51:17.747Z,101579.34
2018-07-22T19:53:46.944Z,101585.02
2018-07-22T19:56:16.291Z,101581.88
2018-07-22T19:58:45.742Z,101584.95
2018-07-22T20:01:15.001Z,101585.13
2018-07-22T20:03:44.369Z,101592.47
2018-07-22T20:06:13.616Z,101590.84
2018-07-22T20:08:42.940Z,101595.36
2018-07-22T20:11:12.187Z,101599.08
2018-07-22T20:13:41.485Z,101604.20
2018-07-22T20:16:11.136Z,101605.30
2018-07-22T20:18:40.328Z,101605.23
2018-07-22T20:21:09.565Z,101601.45
2018-07-22T20:23:38.818Z,101602.45
2018-07-22T20:26:07.894Z,101603.23
2018-07-22T20:28:36.819Z,101605.97
2018-07-22T20:31:06.224Z,101607.98
2018-07-22T20:33:35.488Z,101608.26
2018-07-22T20:36:04.751Z,101599.61
2018-07-22T20:38:33.772Z,101604.86
2018-07-22T20:41:03.063Z,101612.27
2018-07-22T20:43:32.093Z,101604.23
2018-07-22T20:46:01.032Z,101614.16
2018-07-22T20:48:30.058Z,101613.72
2018-07-22T20:50:59.337Z,101619.23
2018-07-22T20:53:28.957Z,101615.19
2018-07-22T20:55:57.968Z,101615.65
2018-07-22T20:58:27.234Z,101620.34
2018-07-22T21:00:56.231Z,101618.69
2018-07-22T21:03:25.127Z,101617.83
2018-07-22T21:05:54.203Z,101627.69
2018-07-22T21:08:23.078Z,101624.52
2018-07-22T21:10:52.025Z,101628.53
2018-07-22T21:13:24.332Z,101630.16
2018-07-22T21:15:53.271Z,101622.87
2018-07-22T21:18:22.772Z,101624.74
2018-07-22T21:20:51.760Z,101624.78
2018-07-22T21:23:20.723Z,101627.94
2018-07-22T21:25:49.629Z,101626.74
2018-07-22T21:28:18.555Z,101631.78
2018-07-22T21:30:47.767Z,101632.45
2018-07-22T21:33:16.719Z,101630.24
2018-07-22T21:35:45.617Z,101627.01
2018-07-22T21:38:14.555Z,101623.67
2018-07-22T21:40:43.538Z,101630.03
2018-07-22T21:43:12.521Z,101628.97
2018-07-22T21:45:41.795Z,101626.16
2018-07-22T21:48:10.720Z,101629.17
2018-07-22T21:50:39.701Z,101626.23
2018-07-22T21:53:08.616Z,101628.95
2018-07-22T21:55:37.571Z,101632.12
2018-07-22T21:58:06.469Z,101643.16
2018-07-22T22:00:40.791Z,101636.13
2018-07-22T22:03:09.861Z,101641.84
2018-07-22T22:05:38.845Z,101633.57
2018-07-22T22:08:08.356Z,101641.30
2018-07-22T22:10:37.421Z,101636.56
2018-07-22T22:13:06.486Z,101633.95
2018-07-22T22:15:35.605Z,101637.11
2018-07-22T22:18:05.600Z,101640.05
2018-07-22T22:20:34.681Z,101636.55
2018-07-22T22:23:03.651Z,101639.87
2018-07-22T22:25:32.943Z,101639.63
2018-07-22T22:28:01.931Z,101640.30
2018-07-22T22:30:30.998Z,101640.39
2018-07-22T22:32:59.972Z,101640.48
2018-07-22T22:35:28.949Z,101641.55
2018-07-22T22:37:58.004Z,101638.73
2018-07-22T22:40:27.005Z,101636.81
2018-07-22T22:42:55.967Z,101638.48
2018-07-22T22:45:24.969Z,101642.55
2018-07-22T22:47:55.797Z,101639.84
2018-07-22T22:50:24.821Z,101637.37
2018-07-22T22:52:53.848Z,101644.36
2018-07-22T22:55:22.807Z,101646.35
2018-07-22T23:00:08.297Z,101642.98
2018-07-22T23:02:38.176Z,101635.84
2018-07-22T23:05:08.876Z,101638.22
2018-07-22T23:07:37.909Z,101637.91
2018-07-22T23:10:06.860Z,101641.59
2018-07-22T23:12:36.470Z,101643.42
2018-07-22T23:15:05.837Z,101640.66
2018-07-22T23:17:34.851Z,101640.05
2018-07-22T23:20:04.003Z,101645.08
2018-07-22T23:22:33.119Z,101646.31
2018-07-22T23:25:02.152Z,101645.86
2018-07-22T23:27:31.170Z,101650.80
2018-07-22T23:30:00.129Z,101649.77
2018-07-22T23:32:29.117Z,101649.59
2018-07-22T23:34:58.793Z,101651.61
2018-07-22T23:37:27.786Z,101652.21
2018-07-22T23:39:56.815Z,101655.15
2018-07-22T23:42:26.255Z,101647.22
2018-07-22T23:44:55.213Z,101654.52
2018-07-22T23:47:24.226Z,101655.88
2018-07-22T23:49:53.257Z,101654.98
2018-07-22T23:52:22.279Z,101655.92
2018-07-22T23:54:51.317Z,101653.58
2018-07-22T23:57:20.291Z,101647.95
2018-07-22T23:59:50.419Z,101649.19
